sensor_id;sensor_type;location;lat;lon;timestamp;temperature;humidity
22769;DHT22;13001;51.968;5.918;2024-02-16T00:00:13;13.00;99.90
22769;DHT22;13001;51.968;5.918;2024-02-16T00:02:42;12.90;99.90
22769;DHT22;13001;51.968;5.918;2024-02-16T00:05:15;12.90;99.90
22769;DHT22;13001;51.968;5.918;2024-02-16T00:07:42;12.90;99.90
22769;DHT22;13001;51.968;5.918;2024-02-16T00:10:10;12.90;99.90
22769;DHT22;13001;51.968;5.918;2024-02-16T00:12:39;12.90;99.90
22769;DHT22;13001;51.968;5.918;2024-02-16T00:15:07;12.80;99.90
22769;DHT22;13001;51.968;5.918;2024-02-16T00:17:34;12.80;99.90
22769;DHT22;13001;51.968;5.918;2024-02-16T00:20:02;12.90;99.90
22769;DHT22;13001;51.968;5.918;2024-02-16T00:22:29;12.90;99.90
22769;DHT22;13001;51.968;5.918;2024-02-16T00:24:57;12.90;99.90
22769;DHT22;13001;51.968;5.918;2024-02-16T00:27:25;12.90;99.90
22769;DHT22;13001;51.968;5.918;2024-02-16T00:29:52;12.90;99.90
22769;DHT22;13001;51.968;5.918;2024-02-16T00:32:20;12.90;99.90
22769;DHT22;13001;51.968;5.918;2024-02-16T00:34:49;12.90;99.90
22769;DHT22;13001;51.968;5.918;2024-02-16T00:37:18;12.90;99.90
22769;DHT22;13001;51.968;5.918;2024-02-16T00:39:46;12.90;99.90
22769;DHT22;13001;51.968;5.918;2024-02-16T00:42:13;12.80;99.90
22769;DHT22;13001;51.968;5.918;2024-02-16T00:44:41;12.80;99.90
22769;DHT22;13001;51.968;5.918;2024-02-16T00:47:09;12.80;99.90
22769;DHT22;13001;51.968;5.918;2024-02-16T00:49:36;12.80;99.90
22769;DHT22;13001;51.968;5.918;2024-02-16T00:52:04;12.70;99.90
22769;DHT22;13001;51.968;5.918;2024-02-16T00:54:32;12.70;99.90
22769;DHT22;13001;51.968;5.918;2024-02-16T00:56:59;12.70;99.90
22769;DHT22;13001;51.968;5.918;2024-02-16T00:59:29;12.70;99.90
22769;DHT22;13001;51.968;5.918;2024-02-16T01:01:56;12.70;99.90
22769;DHT22;13001;51.968;5.918;2024-02-16T01:04:24;12.60;99.90
22769;DHT22;13001;51.968;5.918;2024-02-16T01:06:51;12.60;99.90
22769;DHT22;13001;51.968;5.918;2024-02-16T01:09:19;12.60;99.90
22769;DHT22;13001;51.968;5.918;2024-02-16T01:11:46;12.60;99.90
22769;DHT22;13001;51.968;5.918;2024-02-16T01:14:15;12.60;99.90
22769;DHT22;13001;51.968;5.918;2024-02-16T01:16:42;12.70;99.90
22769;DHT22;13001;51.968;5.918;2024-02-16T01:19:10;12.70;99.90
22769;DHT22;13001;51.968;5.918;2024-02-16T01:21:37;12.70;99.90
22769;DHT22;13001;51.968;5.918;2024-02-16T01:24:05;12.70;99.90
22769;DHT22;13001;51.968;5.918;2024-02-16T01:26:33;12.70;99.90
22769;DHT22;13001;51.968;5.918;2024-02-16T01:29:00;12.70;99.90
22769;DHT22;13001;51.968;5.918;2024-02-16T01:31:28;12.70;99.90
22769;DHT22;13001;51.968;5.918;2024-02-16T01:33:58;12.70;99.90
22769;DHT22;13001;51.968;5.918;2024-02-16T01:36:25;12.80;99.90
22769;DHT22;13001;51.968;5.918;2024-02-16T01:38:52;12.80;99.90
22769;DHT22;13001;51.968;5.918;2024-02-16T01:41:20;12.80;99.90
22769;DHT22;13001;51.968;5.918;2024-02-16T01:43:47;12.70;99.90
22769;DHT22;13001;51.968;5.918;2024-02-16T01:46:15;12.80;99.90
22769;DHT22;13001;51.968;5.918;2024-02-16T01:48:42;12.70;99.90
22769;DHT22;13001;51.968;5.918;2024-02-16T01:51:11;12.70;99.90
22769;DHT22;13001;51.968;5.918;2024-02-16T01:53:39;12.70;99.90
22769;DHT22;13001;51.968;5.918;2024-02-16T01:56:08;12.70;99.90
22769;DHT22;13001;51.968;5.918;2024-02-16T01:58:37;12.70;99.90
22769;DHT22;13001;51.968;5.918;2024-02-16T02:01:05;12.70;99.90
22769;DHT22;13001;51.968;5.918;2024-02-16T02:03:32;12.60;99.90
22769;DHT22;13001;51.968;5.918;2024-02-16T02:06:01;12.60;99.90
22769;DHT22;13001;51.968;5.918;2024-02-16T02:08:29;12.60;99.90
22769;DHT22;13001;51.968;5.918;2024-02-16T02:10:57;12.60;99.90
22769;DHT22;13001;51.968;5.918;2024-02-16T02:13:24;12.60;99.90
22769;DHT22;13001;51.968;5.918;2024-02-16T02:15:53;12.70;99.90
22769;DHT22;13001;51.968;5.918;2024-02-16T02:18:22;12.60;99.90
22769;DHT22;13001;51.968;5.918;2024-02-16T02:20:49;12.70;99.90
22769;DHT22;13001;51.968;5.918;2024-02-16T02:23:17;12.70;99.90
22769;DHT22;13001;51.968;5.918;2024-02-16T02:25:45;12.70;99.90
22769;DHT22;13001;51.968;5.918;2024-02-16T02:28:14;12.60;99.90
22769;DHT22;13001;51.968;5.918;2024-02-16T02:30:44;12.60;99.90
22769;DHT22;13001;51.968;5.918;2024-02-16T02:33:12;12.60;99.90
22769;DHT22;13001;51.968;5.918;2024-02-16T02:35:40;12.60;99.90
22769;DHT22;13001;51.968;5.918;2024-02-16T02:38:08;12.60;99.90
22769;DHT22;13001;51.968;5.918;2024-02-16T02:40:36;12.60;99.90
22769;DHT22;13001;51.968;5.918;2024-02-16T02:43:04;12.60;99.90
22769;DHT22;13001;51.968;5.918;2024-02-16T02:45:32;12.60;99.90
22769;DHT22;13001;51.968;5.918;2024-02-16T02:48:00;12.70;99.90
22769;DHT22;13001;51.968;5.918;2024-02-16T02:50:29;12.70;99.90
22769;DHT22;13001;51.968;5.918;2024-02-16T02:52:57;12.70;99.90
22769;DHT22;13001;51.968;5.918;2024-02-16T02:55:25;12.70;99.90
22769;DHT22;13001;51.968;5.918;2024-02-16T02:57:53;12.80;99.90
22769;DHT22;13001;51.968;5.918;2024-02-16T03:00:21;12.70;99.90
22769;DHT22;13001;51.968;5.918;2024-02-16T03:02:48;12.80;99.90
22769;DHT22;13001;51.968;5.918;2024-02-16T03:05:16;12.80;99.90
22769;DHT22;13001;51.968;5.918;2024-02-16T03:07:45;12.80;99.90
22769;DHT22;13001;51.968;5.918;2024-02-16T03:10:12;12.80;99.90
22769;DHT22;13001;51.968;5.918;2024-02-16T03:12:41;12.80;99.90
22769;DHT22;13001;51.968;5.918;2024-02-16T03:15:10;12.80;99.90
22769;DHT22;13001;51.968;5.918;2024-02-16T03:17:37;12.80;99.90
22769;DHT22;13001;51.968;5.918;2024-02-16T03:20:05;12.80;99.90
22769;DHT22;13001;51.968;5.918;2024-02-16T03:22:34;12.90;99.90
22769;DHT22;13001;51.968;5.918;2024-02-16T03:25:02;12.90;99.90
22769;DHT22;13001;51.968;5.918;2024-02-16T03:27:29;12.90;99.90
22769;DHT22;13001;51.968;5.918;2024-02-16T03:29:57;12.90;99.90
22769;DHT22;13001;51.968;5.918;2024-02-16T03:32:24;13.00;99.90
22769;DHT22;13001;51.968;5.918;2024-02-16T03:34:52;13.00;99.90
22769;DHT22;13001;51.968;5.918;2024-02-16T03:37:20;13.00;99.90
22769;DHT22;13001;51.968;5.918;2024-02-16T03:39:47;13.00;99.90
22769;DHT22;13001;51.968;5.918;2024-02-16T03:42:15;13.00;99.90
22769;DHT22;13001;51.968;5.918;2024-02-16T03:44:45;13.00;99.90
22769;DHT22;13001;51.968;5.918;2024-02-16T03:47:13;13.00;99.90
22769;DHT22;13001;51.968;5.918;2024-02-16T03:49:42;13.00;99.90
22769;DHT22;13001;51.968;5.918;2024-02-16T03:52:09;13.00;99.90
22769;DHT22;13001;51.968;5.918;2024-02-16T03:54:37;13.00;99.90
22769;DHT22;13001;51.968;5.918;2024-02-16T03:57:04;12.90;99.90
22769;DHT22;13001;51.968;5.918;2024-02-16T03:59:33;12.90;99.90
22769;DHT22;13001;51.968;5.918;2024-02-16T04:02:01;12.80;99.90
22769;DHT22;13001;51.968;5.918;2024-02-16T04:04:28;12.80;99.90
22769;DHT22;13001;51.968;5.918;2024-02-16T04:06:56;12.80;99.90
22769;DHT22;13001;51.968;5.918;2024-02-16T04:09:23;12.90;99.90
22769;DHT22;13001;51.968;5.918;2024-02-16T04:11:51;12.90;99.90
22769;DHT22;13001;51.968;5.918;2024-02-16T04:14:18;12.90;99.90
22769;DHT22;13001;51.968;5.918;2024-02-16T04:16:46;12.90;99.90
22769;DHT22;13001;51.968;5.918;2024-02-16T04:19:13;12.90;99.90
22769;DHT22;13001;51.968;5.918;2024-02-16T04:21:41;12.90;99.90
22769;DHT22;13001;51.968;5.918;2024-02-16T04:24:08;12.80;99.90
22769;DHT22;13001;51.968;5.918;2024-02-16T04:26:36;12.90;99.90
22769;DHT22;13001;51.968;5.918;2024-02-16T04:29:03;12.90;99.90
22769;DHT22;13001;51.968;5.918;2024-02-16T04:31:31;12.80;99.90
22769;DHT22;13001;51.968;5.918;2024-02-16T04:33:59;12.70;99.90
22769;DHT22;13001;51.968;5.918;2024-02-16T04:36:26;12.70;99.90
22769;DHT22;13001;51.968;5.918;2024-02-16T04:38:55;12.70;99.90
22769;DHT22;13001;51.968;5.918;2024-02-16T04:41:22;12.70;99.90
22769;DHT22;13001;51.968;5.918;2024-02-16T04:43:50;12.70;99.90
22769;DHT22;13001;51.968;5.918;2024-02-16T04:46:17;12.80;99.90
22769;DHT22;13001;51.968;5.918;2024-02-16T04:48:45;12.90;99.90
22769;DHT22;13001;51.968;5.918;2024-02-16T04:51:12;12.90;99.90
22769;DHT22;13001;51.968;5.918;2024-02-16T04:53:40;13.00;99.90
22769;DHT22;13001;51.968;5.918;2024-02-16T04:56:07;13.00;99.90
22769;DHT22;13001;51.968;5.918;2024-02-16T04:58:39;13.00;99.90
22769;DHT22;13001;51.968;5.918;2024-02-16T05:01:04;13.10;99.90
22769;DHT22;13001;51.968;5.918;2024-02-16T05:03:33;13.10;99.90
22769;DHT22;13001;51.968;5.918;2024-02-16T05:06:01;13.10;99.90
22769;DHT22;13001;51.968;5.918;2024-02-16T05:08:28;13.10;99.90
22769;DHT22;13001;51.968;5.918;2024-02-16T05:10:57;13.20;99.90
22769;DHT22;13001;51.968;5.918;2024-02-16T05:13:24;13.30;99.90
22769;DHT22;13001;51.968;5.918;2024-02-16T05:15:52;13.30;99.90
22769;DHT22;13001;51.968;5.918;2024-02-16T05:18:24;13.40;99.90
22769;DHT22;13001;51.968;5.918;2024-02-16T05:20:51;13.40;99.90
22769;DHT22;13001;51.968;5.918;2024-02-16T05:23:19;13.40;99.90
22769;DHT22;13001;51.968;5.918;2024-02-16T05:25:46;13.40;99.90
22769;DHT22;13001;51.968;5.918;2024-02-16T05:28:14;13.40;99.90
22769;DHT22;13001;51.968;5.918;2024-02-16T05:30:41;13.40;99.90
22769;DHT22;13001;51.968;5.918;2024-02-16T05:33:09;13.30;99.90
22769;DHT22;13001;51.968;5.918;2024-02-16T05:35:36;13.30;99.90
22769;DHT22;13001;51.968;5.918;2024-02-16T05:38:06;13.30;99.90
22769;DHT22;13001;51.968;5.918;2024-02-16T05:40:36;13.40;99.90
22769;DHT22;13001;51.968;5.918;2024-02-16T05:43:14;13.40;99.90
22769;DHT22;13001;51.968;5.918;2024-02-16T05:45:42;13.40;99.90
22769;DHT22;13001;51.968;5.918;2024-02-16T05:48:09;13.40;99.90
22769;DHT22;13001;51.968;5.918;2024-02-16T05:50:37;13.40;99.90
22769;DHT22;13001;51.968;5.918;2024-02-16T05:53:04;13.50;99.90
22769;DHT22;13001;51.968;5.918;2024-02-16T05:55:32;13.50;99.90
22769;DHT22;13001;51.968;5.918;2024-02-16T05:58:01;13.50;99.90
22769;DHT22;13001;51.968;5.918;2024-02-16T06:00:33;13.50;99.90
22769;DHT22;13001;51.968;5.918;2024-02-16T06:03:04;13.60;99.90
22769;DHT22;13001;51.968;5.918;2024-02-16T06:05:32;13.60;99.90
22769;DHT22;13001;51.968;5.918;2024-02-16T06:08:00;13.60;99.90
22769;DHT22;13001;51.968;5.918;2024-02-16T06:10:27;13.60;99.90
22769;DHT22;13001;51.968;5.918;2024-02-16T06:12:55;13.60;99.90
22769;DHT22;13001;51.968;5.918;2024-02-16T06:15:25;13.60;99.90
22769;DHT22;13001;51.968;5.918;2024-02-16T06:17:53;13.60;99.90
22769;DHT22;13001;51.968;5.918;2024-02-16T06:20:20;13.60;99.90
22769;DHT22;13001;51.968;5.918;2024-02-16T06:22:48;13.60;99.90
22769;DHT22;13001;51.968;5.918;2024-02-16T06:25:15;13.60;99.90
22769;DHT22;13001;51.968;5.918;2024-02-16T06:27:43;13.60;99.90
22769;DHT22;13001;51.968;5.918;2024-02-16T06:30:11;13.60;99.90
22769;DHT22;13001;51.968;5.918;2024-02-16T06:32:47;13.60;99.90
22769;DHT22;13001;51.968;5.918;2024-02-16T06:35:15;13.60;99.90
22769;DHT22;13001;51.968;5.918;2024-02-16T06:37:42;13.60;99.90
22769;DHT22;13001;51.968;5.918;2024-02-16T06:40:10;13.70;99.90
22769;DHT22;13001;51.968;5.918;2024-02-16T06:42:38;13.70;99.90
22769;DHT22;13001;51.968;5.918;2024-02-16T06:45:06;13.70;99.90
22769;DHT22;13001;51.968;5.918;2024-02-16T06:47:33;13.80;99.90
22769;DHT22;13001;51.968;5.918;2024-02-16T06:50:01;13.80;99.90
22769;DHT22;13001;51.968;5.918;2024-02-16T06:52:28;13.80;99.90
22769;DHT22;13001;51.968;5.918;2024-02-16T06:54:56;13.90;99.90
22769;DHT22;13001;51.968;5.918;2024-02-16T06:57:23;13.90;99.90
22769;DHT22;13001;51.968;5.918;2024-02-16T06:59:51;13.90;99.90
22769;DHT22;13001;51.968;5.918;2024-02-16T07:02:20;13.90;99.90
22769;DHT22;13001;51.968;5.918;2024-02-16T07:04:47;13.90;99.90
22769;DHT22;13001;51.968;5.918;2024-02-16T07:07:14;13.90;99.90
22769;DHT22;13001;51.968;5.918;2024-02-16T07:09:42;13.90;99.90
22769;DHT22;13001;51.968;5.918;2024-02-16T07:12:10;14.00;99.90
22769;DHT22;13001;51.968;5.918;2024-02-16T07:14:39;14.00;99.90
22769;DHT22;13001;51.968;5.918;2024-02-16T07:17:07;14.00;99.90
22769;DHT22;13001;51.968;5.918;2024-02-16T07:19:36;14.10;99.90
22769;DHT22;13001;51.968;5.918;2024-02-16T07:22:04;14.10;99.90
22769;DHT22;13001;51.968;5.918;2024-02-16T07:24:33;14.20;99.90
22769;DHT22;13001;51.968;5.918;2024-02-16T07:27:00;14.20;99.90
22769;DHT22;13001;51.968;5.918;2024-02-16T07:29:28;14.30;99.90
22769;DHT22;13001;51.968;5.918;2024-02-16T07:31:56;14.30;99.90
22769;DHT22;13001;51.968;5.918;2024-02-16T07:34:24;14.40;99.90
22769;DHT22;13001;51.968;5.918;2024-02-16T07:36:52;14.40;99.90
22769;DHT22;13001;51.968;5.918;2024-02-16T07:39:20;14.50;99.90
22769;DHT22;13001;51.968;5.918;2024-02-16T07:41:49;14.60;99.90
22769;DHT22;13001;51.968;5.918;2024-02-16T07:44:17;14.80;99.90
22769;DHT22;13001;51.968;5.918;2024-02-16T07:46:44;15.10;99.90
22769;DHT22;13001;51.968;5.918;2024-02-16T07:49:12;15.10;99.90
22769;DHT22;13001;51.968;5.918;2024-02-16T07:51:40;15.10;99.90
22769;DHT22;13001;51.968;5.918;2024-02-16T07:54:08;14.90;99.90
22769;DHT22;13001;51.968;5.918;2024-02-16T07:56:35;14.70;99.90
22769;DHT22;13001;51.968;5.918;2024-02-16T07:59:03;14.50;99.90
22769;DHT22;13001;51.968;5.918;2024-02-16T08:01:30;14.30;99.90
22769;DHT22;13001;51.968;5.918;2024-02-16T08:03:58;14.20;99.90
22769;DHT22;13001;51.968;5.918;2024-02-16T08:06:26;14.10;99.90
22769;DHT22;13001;51.968;5.918;2024-02-16T08:08:54;14.00;99.90
22769;DHT22;13001;51.968;5.918;2024-02-16T08:11:23;13.90;99.90
22769;DHT22;13001;51.968;5.918;2024-02-16T08:13:50;13.90;99.90
22769;DHT22;13001;51.968;5.918;2024-02-16T08:16:18;13.90;99.90
22769;DHT22;13001;51.968;5.918;2024-02-16T08:18:45;13.80;99.90
22769;DHT22;13001;51.968;5.918;2024-02-16T08:21:13;13.80;99.90
22769;DHT22;13001;51.968;5.918;2024-02-16T08:23:40;13.80;99.90
22769;DHT22;13001;51.968;5.918;2024-02-16T08:26:08;13.90;99.90
22769;DHT22;13001;51.968;5.918;2024-02-16T08:28:35;13.90;99.90
22769;DHT22;13001;51.968;5.918;2024-02-16T08:31:03;14.00;99.90
22769;DHT22;13001;51.968;5.918;2024-02-16T08:33:30;14.00;99.90
22769;DHT22;13001;51.968;5.918;2024-02-16T08:35:59;14.10;99.90
22769;DHT22;13001;51.968;5.918;2024-02-16T08:38:27;14.10;99.90
22769;DHT22;13001;51.968;5.918;2024-02-16T08:40:54;14.20;99.90
22769;DHT22;13001;51.968;5.918;2024-02-16T08:43:22;14.20;99.90
22769;DHT22;13001;51.968;5.918;2024-02-16T08:45:49;14.20;99.90
22769;DHT22;13001;51.968;5.918;2024-02-16T08:48:16;14.30;99.90
22769;DHT22;13001;51.968;5.918;2024-02-16T08:50:44;14.40;99.90
22769;DHT22;13001;51.968;5.918;2024-02-16T08:53:11;14.40;99.90
22769;DHT22;13001;51.968;5.918;2024-02-16T08:55:40;14.50;99.90
22769;DHT22;13001;51.968;5.918;2024-02-16T08:58:08;14.60;99.90
22769;DHT22;13001;51.968;5.918;2024-02-16T09:00:35;14.70;99.90
22769;DHT22;13001;51.968;5.918;2024-02-16T09:03:03;14.80;99.90
22769;DHT22;13001;51.968;5.918;2024-02-16T09:05:32;14.90;99.90
22769;DHT22;13001;51.968;5.918;2024-02-16T09:08:00;15.00;99.90
22769;DHT22;13001;51.968;5.918;2024-02-16T09:10:29;15.10;99.90
22769;DHT22;13001;51.968;5.918;2024-02-16T09:12:57;15.20;99.90
22769;DHT22;13001;51.968;5.918;2024-02-16T09:15:25;15.20;99.90
22769;DHT22;13001;51.968;5.918;2024-02-16T09:17:53;15.30;99.90
22769;DHT22;13001;51.968;5.918;2024-02-16T09:20:21;15.30;99.90
22769;DHT22;13001;51.968;5.918;2024-02-16T09:22:49;15.20;99.90
22769;DHT22;13001;51.968;5.918;2024-02-16T09:25:17;15.10;99.90
22769;DHT22;13001;51.968;5.918;2024-02-16T09:27:44;15.10;99.90
22769;DHT22;13001;51.968;5.918;2024-02-16T09:30:13;15.10;99.90
22769;DHT22;13001;51.968;5.918;2024-02-16T09:32:40;15.10;99.90
22769;DHT22;13001;51.968;5.918;2024-02-16T09:35:08;15.00;99.90
22769;DHT22;13001;51.968;5.918;2024-02-16T09:37:36;15.00;99.90
22769;DHT22;13001;51.968;5.918;2024-02-16T09:40:06;15.10;99.90
22769;DHT22;13001;51.968;5.918;2024-02-16T09:42:37;15.10;99.90
22769;DHT22;13001;51.968;5.918;2024-02-16T09:45:07;15.20;99.90
22769;DHT22;13001;51.968;5.918;2024-02-16T09:47:34;15.20;99.90
22769;DHT22;13001;51.968;5.918;2024-02-16T09:50:04;15.20;99.90
22769;DHT22;13001;51.968;5.918;2024-02-16T09:52:32;15.20;99.90
22769;DHT22;13001;51.968;5.918;2024-02-16T09:55:00;15.20;99.90
22769;DHT22;13001;51.968;5.918;2024-02-16T09:57:27;15.20;99.90
22769;DHT22;13001;51.968;5.918;2024-02-16T09:59:56;15.20;99.90
22769;DHT22;13001;51.968;5.918;2024-02-16T10:02:24;15.30;99.90
22769;DHT22;13001;51.968;5.918;2024-02-16T10:04:51;15.30;99.90
22769;DHT22;13001;51.968;5.918;2024-02-16T10:07:30;15.30;99.90
22769;DHT22;13001;51.968;5.918;2024-02-16T10:09:51;15.30;99.90
22769;DHT22;13001;51.968;5.918;2024-02-16T10:12:19;15.30;99.90
22769;DHT22;13001;51.968;5.918;2024-02-16T10:14:54;15.30;99.90
22769;DHT22;13001;51.968;5.918;2024-02-16T10:17:22;15.30;99.90
22769;DHT22;13001;51.968;5.918;2024-02-16T10:19:57;15.30;99.90
22769;DHT22;13001;51.968;5.918;2024-02-16T10:22:25;15.40;99.90
22769;DHT22;13001;51.968;5.918;2024-02-16T10:24:55;15.30;99.90
22769;DHT22;13001;51.968;5.918;2024-02-16T10:27:23;15.40;99.90
22769;DHT22;13001;51.968;5.918;2024-02-16T10:29:52;15.40;99.90
22769;DHT22;13001;51.968;5.918;2024-02-16T10:32:21;15.30;99.90
22769;DHT22;13001;51.968;5.918;2024-02-16T10:34:50;15.30;99.90
22769;DHT22;13001;51.968;5.918;2024-02-16T10:37:19;15.20;99.90
22769;DHT22;13001;51.968;5.918;2024-02-16T10:39:48;15.10;99.90
22769;DHT22;13001;51.968;5.918;2024-02-16T10:42:17;15.00;99.90
22769;DHT22;13001;51.968;5.918;2024-02-16T10:44:46;14.90;99.90
22769;DHT22;13001;51.968;5.918;2024-02-16T10:47:15;14.90;99.90
22769;DHT22;13001;51.968;5.918;2024-02-16T10:49:42;14.80;99.90
22769;DHT22;13001;51.968;5.918;2024-02-16T10:52:12;14.80;99.90
22769;DHT22;13001;51.968;5.918;2024-02-16T10:54:41;14.80;99.90
22769;DHT22;13001;51.968;5.918;2024-02-16T10:57:09;14.70;99.90
22769;DHT22;13001;51.968;5.918;2024-02-16T10:59:44;14.70;99.90
22769;DHT22;13001;51.968;5.918;2024-02-16T11:02:13;14.70;99.90
22769;DHT22;13001;51.968;5.918;2024-02-16T11:04:44;14.70;99.90
22769;DHT22;13001;51.968;5.918;2024-02-16T11:07:17;14.70;99.90
22769;DHT22;13001;51.968;5.918;2024-02-16T11:09:50;14.60;99.90
22769;DHT22;13001;51.968;5.918;2024-02-16T11:12:18;14.60;99.90
22769;DHT22;13001;51.968;5.918;2024-02-16T11:14:46;14.50;99.90
22769;DHT22;13001;51.968;5.918;2024-02-16T11:17:21;14.50;99.90
22769;DHT22;13001;51.968;5.918;2024-02-16T11:19:50;14.40;99.90
22769;DHT22;13001;51.968;5.918;2024-02-16T11:22:18;14.30;99.90
22769;DHT22;13001;51.968;5.918;2024-02-16T11:24:50;14.30;99.90
22769;DHT22;13001;51.968;5.918;2024-02-16T11:27:19;14.20;99.90
22769;DHT22;13001;51.968;5.918;2024-02-16T11:29:48;14.30;99.90
22769;DHT22;13001;51.968;5.918;2024-02-16T11:32:17;14.40;99.90
22769;DHT22;13001;51.968;5.918;2024-02-16T11:34:45;14.40;99.90
22769;DHT22;13001;51.968;5.918;2024-02-16T11:37:13;14.50;99.90
22769;DHT22;13001;51.968;5.918;2024-02-16T11:39:43;14.50;99.90
22769;DHT22;13001;51.968;5.918;2024-02-16T11:42:13;14.50;99.90
22769;DHT22;13001;51.968;5.918;2024-02-16T11:44:56;14.60;99.90
22769;DHT22;13001;51.968;5.918;2024-02-16T11:47:23;14.60;99.90
22769;DHT22;13001;51.968;5.918;2024-02-16T11:50:04;14.60;99.90
22769;DHT22;13001;51.968;5.918;2024-02-16T11:52:32;14.60;99.90
22769;DHT22;13001;51.968;5.918;2024-02-16T11:55:01;14.60;99.90
22769;DHT22;13001;51.968;5.918;2024-02-16T11:57:31;14.60;99.90
22769;DHT22;13001;51.968;5.918;2024-02-16T11:59:58;14.60;99.90
22769;DHT22;13001;51.968;5.918;2024-02-16T12:02:26;14.60;99.90
22769;DHT22;13001;51.968;5.918;2024-02-16T12:04:59;14.60;99.90
22769;DHT22;13001;51.968;5.918;2024-02-16T12:07:27;14.60;99.90
22769;DHT22;13001;51.968;5.918;2024-02-16T12:10:02;14.60;99.90
22769;DHT22;13001;51.968;5.918;2024-02-16T12:12:26;14.50;99.90
22769;DHT22;13001;51.968;5.918;2024-02-16T12:14:54;14.50;99.90
22769;DHT22;13001;51.968;5.918;2024-02-16T12:17:22;14.50;99.90
22769;DHT22;13001;51.968;5.918;2024-02-16T12:19:51;14.60;99.90
22769;DHT22;13001;51.968;5.918;2024-02-16T12:22:20;14.60;99.90
22769;DHT22;13001;51.968;5.918;2024-02-16T12:24:49;14.70;99.90
22769;DHT22;13001;51.968;5.918;2024-02-16T12:27:24;14.70;99.90
22769;DHT22;13001;51.968;5.918;2024-02-16T12:29:52;14.80;99.90
22769;DHT22;13001;51.968;5.918;2024-02-16T12:32:19;14.80;99.90
22769;DHT22;13001;51.968;5.918;2024-02-16T12:34:47;14.80;99.90
22769;DHT22;13001;51.968;5.918;2024-02-16T12:37:14;14.70;99.90
22769;DHT22;13001;51.968;5.918;2024-02-16T12:39:42;14.70;99.90
22769;DHT22;13001;51.968;5.918;2024-02-16T12:42:11;14.70;99.90
22769;DHT22;13001;51.968;5.918;2024-02-16T12:44:40;14.60;99.90
22769;DHT22;13001;51.968;5.918;2024-02-16T12:47:08;14.60;99.90
22769;DHT22;13001;51.968;5.918;2024-02-16T12:49:35;14.60;99.90
22769;DHT22;13001;51.968;5.918;2024-02-16T12:52:03;14.60;99.90
22769;DHT22;13001;51.968;5.918;2024-02-16T12:54:31;14.60;99.90
22769;DHT22;13001;51.968;5.918;2024-02-16T12:56:59;14.50;99.90
22769;DHT22;13001;51.968;5.918;2024-02-16T12:59:27;14.50;99.90
22769;DHT22;13001;51.968;5.918;2024-02-16T13:01:54;14.50;99.90
22769;DHT22;13001;51.968;5.918;2024-02-16T13:04:22;14.60;99.90
22769;DHT22;13001;51.968;5.918;2024-02-16T13:06:52;14.50;99.90
22769;DHT22;13001;51.968;5.918;2024-02-16T13:09:19;14.50;99.90
22769;DHT22;13001;51.968;5.918;2024-02-16T13:11:47;14.50;99.90
22769;DHT22;13001;51.968;5.918;2024-02-16T13:14:16;14.50;99.90
22769;DHT22;13001;51.968;5.918;2024-02-16T13:16:43;14.60;99.90
22769;DHT22;13001;51.968;5.918;2024-02-16T13:19:11;14.60;99.90
22769;DHT22;13001;51.968;5.918;2024-02-16T13:21:39;14.50;99.90
22769;DHT22;13001;51.968;5.918;2024-02-16T13:24:07;14.50;99.90
22769;DHT22;13001;51.968;5.918;2024-02-16T13:26:34;14.40;99.90
22769;DHT22;13001;51.968;5.918;2024-02-16T13:29:02;14.40;99.90
22769;DHT22;13001;51.968;5.918;2024-02-16T13:31:30;14.30;99.90
22769;DHT22;13001;51.968;5.918;2024-02-16T13:33:58;14.30;99.90
22769;DHT22;13001;51.968;5.918;2024-02-16T13:36:26;14.30;99.90
22769;DHT22;13001;51.968;5.918;2024-02-16T13:38:53;14.40;99.90
22769;DHT22;13001;51.968;5.918;2024-02-16T13:41:21;14.40;99.90
22769;DHT22;13001;51.968;5.918;2024-02-16T13:43:48;14.50;99.90
22769;DHT22;13001;51.968;5.918;2024-02-16T13:46:16;14.70;99.90
22769;DHT22;13001;51.968;5.918;2024-02-16T13:48:43;14.80;99.90
22769;DHT22;13001;51.968;5.918;2024-02-16T13:51:11;14.90;99.90
22769;DHT22;13001;51.968;5.918;2024-02-16T13:53:38;14.90;99.90
22769;DHT22;13001;51.968;5.918;2024-02-16T13:56:06;14.90;99.90
22769;DHT22;13001;51.968;5.918;2024-02-16T13:58:35;14.90;99.90
22769;DHT22;13001;51.968;5.918;2024-02-16T14:01:03;15.00;99.90
22769;DHT22;13001;51.968;5.918;2024-02-16T14:03:31;15.00;99.90
22769;DHT22;13001;51.968;5.918;2024-02-16T14:06:00;14.90;99.90
22769;DHT22;13001;51.968;5.918;2024-02-16T14:08:28;15.00;99.90
22769;DHT22;13001;51.968;5.918;2024-02-16T14:10:57;15.10;99.90
22769;DHT22;13001;51.968;5.918;2024-02-16T14:13:24;15.20;99.90
22769;DHT22;13001;51.968;5.918;2024-02-16T14:15:52;15.20;99.90
22769;DHT22;13001;51.968;5.918;2024-02-16T14:18:19;15.10;99.90
22769;DHT22;13001;51.968;5.918;2024-02-16T14:20:47;15.10;99.90
22769;DHT22;13001;51.968;5.918;2024-02-16T14:23:14;15.10;99.90
22769;DHT22;13001;51.968;5.918;2024-02-16T14:25:42;15.10;99.90
22769;DHT22;13001;51.968;5.918;2024-02-16T14:28:09;15.00;99.90
22769;DHT22;13001;51.968;5.918;2024-02-16T14:30:37;15.00;99.90
22769;DHT22;13001;51.968;5.918;2024-02-16T14:33:06;15.00;99.90
22769;DHT22;13001;51.968;5.918;2024-02-16T14:35:33;15.00;99.90
22769;DHT22;13001;51.968;5.918;2024-02-16T14:38:03;15.00;99.90
22769;DHT22;13001;51.968;5.918;2024-02-16T14:40:31;14.90;99.90
22769;DHT22;13001;51.968;5.918;2024-02-16T14:42:59;14.90;99.90
22769;DHT22;13001;51.968;5.918;2024-02-16T14:45:27;15.10;99.90
22769;DHT22;13001;51.968;5.918;2024-02-16T14:47:54;15.20;99.90
22769;DHT22;13001;51.968;5.918;2024-02-16T14:50:22;15.20;99.90
22769;DHT22;13001;51.968;5.918;2024-02-16T14:52:50;15.20;99.90
22769;DHT22;13001;51.968;5.918;2024-02-16T14:55:18;15.20;99.90
22769;DHT22;13001;51.968;5.918;2024-02-16T14:57:45;15.20;99.90
22769;DHT22;13001;51.968;5.918;2024-02-16T15:00:13;15.10;99.90
22769;DHT22;13001;51.968;5.918;2024-02-16T15:02:41;15.10;99.90
22769;DHT22;13001;51.968;5.918;2024-02-16T15:05:09;15.10;99.90
22769;DHT22;13001;51.968;5.918;2024-02-16T15:07:39;15.20;99.90
22769;DHT22;13001;51.968;5.918;2024-02-16T15:10:06;15.20;99.90
22769;DHT22;13001;51.968;5.918;2024-02-16T15:12:36;15.20;99.90
22769;DHT22;13001;51.968;5.918;2024-02-16T15:15:05;15.10;99.90
22769;DHT22;13001;51.968;5.918;2024-02-16T15:17:33;15.10;99.90
22769;DHT22;13001;51.968;5.918;2024-02-16T15:20:00;15.00;99.90
22769;DHT22;13001;51.968;5.918;2024-02-16T15:22:29;15.00;99.90
22769;DHT22;13001;51.968;5.918;2024-02-16T15:24:57;14.90;99.90
22769;DHT22;13001;51.968;5.918;2024-02-16T15:27:25;14.90;99.90
22769;DHT22;13001;51.968;5.918;2024-02-16T15:29:52;14.80;99.90
22769;DHT22;13001;51.968;5.918;2024-02-16T15:32:20;14.80;99.90
22769;DHT22;13001;51.968;5.918;2024-02-16T15:34:47;14.80;99.90